Time;durP1;ratioP1;P1;durP2;ratioP2;P2;SDS_P1;SDS_P2;PMS_P1;PMS_P2;Temp;Humidity;BMP_temperature;BMP_pressure;BME280_temperature;BME280_humidity;BME280_pressure;Samples;Min_cycle;Max_cycle;Signal;HPM_P1;HPM_P2
2022/03/26 00:01:50;;;;;;;38.33;19.65;;;7.90;83.10;;;7.75;100.00;98629.22;4992336;28;20057;-72
2022/03/26 00:04:18;;;;;;;36.20;18.80;;;7.90;82.80;;;7.85;100.00;98622.16;4996244;28;20471;-72
2022/03/26 00:06:45;;;;;;;36.88;19.35;;;8.00;82.70;;;7.79;100.00;98626.56;4994773;28;21885;-73
2022/03/26 00:09:12;;;;;;;34.55;19.05;;;8.00;82.90;;;7.84;100.00;98628.19;4993565;28;20173;-72
2022/03/26 00:11:39;;;;;;;34.33;19.10;;;7.90;81.90;;;7.94;100.00;98624.63;4990751;28;20050;-72
2022/03/26 00:14:07;;;;;;;34.13;19.35;;;8.00;81.50;;;7.87;100.00;98620.41;4989545;28;20082;-72
2022/03/26 00:16:35;;;;;;;35.88;18.33;;;8.00;81.70;;;7.68;100.00;98624.97;4996869;28;20134;-72
2022/03/26 00:19:02;;;;;;;38.55;19.83;;;7.90;82.70;;;7.57;100.00;98631.19;5019352;28;20077;-69
2022/03/26 00:21:29;;;;;;;37.67;18.65;;;7.80;82.90;;;7.41;100.00;98630.53;4999796;28;20099;-70
2022/03/26 00:23:56;;;;;;;39.00;19.17;;;7.70;83.40;;;7.32;100.00;98634.06;4998627;28;20045;-70
2022/03/26 00:26:24;;;;;;;33.90;18.10;;;7.60;84.40;;;7.42;100.00;98630.50;4993978;28;20167;-70
2022/03/26 00:28:52;;;;;;;39.60;18.83;;;7.60;83.60;;;7.46;100.00;98639.94;5006282;28;20140;-70
2022/03/26 00:31:18;;;;;;;34.60;18.17;;;7.50;83.40;;;7.37;100.00;98641.75;4995019;28;20073;-71
2022/03/26 00:33:46;;;;;;;34.78;18.13;;;7.60;84.00;;;7.35;100.00;98643.53;4995795;28;20066;-72
2022/03/26 00:36:13;;;;;;;33.78;18.20;;;7.50;84.20;;;7.32;100.00;98642.69;4994696;28;20153;-72
2022/03/26 00:38:39;;;;;;;31.60;17.58;;;7.50;84.50;;;7.30;100.00;98641.84;4991554;28;20145;-72
2022/03/26 00:41:07;;;;;;;36.75;18.70;;;7.50;84.50;;;7.30;100.00;98639.28;4991220;28;20090;-72
2022/03/26 00:43:34;;;;;;;36.78;18.35;;;7.50;85.00;;;7.13;100.00;98643.78;4993092;28;20061;-72
2022/03/26 00:46:01;;;;;;;33.35;16.92;;;7.40;85.40;;;7.02;100.00;98637.88;4992890;28;20145;-71
2022/03/26 00:48:28;;;;;;;32.28;18.17;;;7.30;85.70;;;6.89;100.00;98639.75;4992489;28;20132;-72
2022/03/26 00:50:55;;;;;;;33.10;18.25;;;7.20;86.10;;;6.80;100.00;98639.88;4992760;28;20050;-71
2022/03/26 00:53:22;;;;;;;33.05;18.42;;;7.10;87.30;;;6.73;100.00;98638.19;4995936;28;20480;-71
2022/03/26 00:55:49;;;;;;;34.10;17.73;;;7.10;87.90;;;6.66;100.00;98642.56;4991164;28;20988;-72
2022/03/26 00:58:16;;;;;;;36.97;17.33;;;7.00;87.80;;;6.55;100.00;98634.94;4984781;28;20058;-71
2022/03/26 01:00:43;;;;;;;37.63;18.25;;;6.90;88.40;;;6.42;100.00;98641.91;4990461;28;20140;-72
2022/03/26 01:03:10;;;;;;;34.88;18.35;;;6.80;89.60;;;6.38;100.00;98640.22;4993392;28;20053;-72
2022/03/26 01:05:41;;;;;;;36.35;17.92;;;6.70;89.70;;;6.32;100.00;98640.31;4991566;28;20337;-71
2022/03/26 01:08:08;;;;;;;33.90;17.38;;;6.70;90.10;;;6.38;100.00;98639.38;4989313;28;20049;-71
2022/03/26 01:10:35;;;;;;;30.90;17.80;;;6.70;90.10;;;6.26;100.00;98637.78;4988401;28;20128;-72
2022/03/26 01:13:03;;;;;;;36.95;18.60;;;6.60;90.40;;;6.14;100.00;98636.16;4994593;28;20054;-71
2022/03/26 01:15:30;;;;;;;33.08;17.65;;;6.50;90.60;;;5.97;100.00;98638.00;5006418;28;20408;-72
2022/03/26 01:17:57;;;;;;;33.75;17.83;;;6.40;91.40;;;5.94;100.00;98640.56;5001562;28;20056;-72
2022/03/26 01:20:25;;;;;;;32.72;18.42;;;6.30;91.50;;;5.84;100.00;98640.63;5007750;28;20096;-71
2022/03/26 01:22:52;;;;;;;36.28;18.42;;;6.30;91.90;;;5.75;100.00;98637.25;4991978;28;20092;-72
2022/03/26 01:25:19;;;;;;;35.25;18.35;;;6.10;92.70;;;5.60;100.00;98641.63;4991017;28;20419;-72
2022/03/26 01:27:46;;;;;;;35.25;18.85;;;6.00;93.60;;;5.55;100.00;98637.38;4990279;28;20487;-72
2022/03/26 01:30:13;;;;;;;31.33;17.42;;;6.00;93.20;;;5.70;100.00;98633.84;4990609;28;20504;-71
2022/03/26 01:32:43;;;;;;;31.23;18.05;;;6.00;93.70;;;5.55;100.00;98633.06;4992076;28;20050;-72
2022/03/26 01:35:12;;;;;;;36.13;19.02;;;6.00;93.80;;;5.62;100.00;98629.59;4991810;28;20052;-71
2022/03/26 01:37:39;;;;;;;33.15;18.55;;;6.00;93.80;;;5.40;100.00;98635.72;4992209;28;20128;-72
2022/03/26 01:40:07;;;;;;;33.25;19.75;;;5.80;95.00;;;5.17;100.00;98628.94;4991044;28;20139;-70
2022/03/26 01:42:34;;;;;;;32.17;17.98;;;5.70;96.10;;;5.15;100.00;98629.81;5002757;28;20409;-71
2022/03/26 01:45:01;;;;;;;32.70;18.52;;;5.60;96.20;;;5.12;100.00;98637.56;5004694;28;20038;-71
2022/03/26 01:47:28;;;;;;;36.30;18.92;;;5.50;96.70;;;5.20;100.00;98633.22;5001756;28;20644;-71
2022/03/26 01:49:55;;;;;;;35.38;19.15;;;5.50;97.00;;;5.32;100.00;98629.78;4993705;28;20486;-70
2022/03/26 01:52:22;;;;;;;33.08;16.60;;;5.60;96.60;;;5.23;100.00;98630.66;5016593;28;20551;-71
2022/03/26 01:54:49;;;;;;;33.30;17.63;;;5.60;97.10;;;5.18;100.00;98630.69;4998722;28;20744;-70
2022/03/26 01:57:16;;;;;;;35.08;18.90;;;5.50;97.60;;;4.98;100.00;98622.19;4993421;28;20138;-70
2022/03/26 01:59:43;;;;;;;35.80;18.63;;;5.40;98.90;;;4.99;100.00;98622.16;5001423;28;20081;-71
2022/03/26 02:02:10;;;;;;;30.55;18.88;;;5.30;98.70;;;4.92;100.00;98617.88;4999905;28;20119;-70
2022/03/26 02:04:37;;;;;;;33.90;18.45;;;5.30;99.50;;;5.01;100.00;98623.00;4997590;28;20650;-71
2022/03/26 02:07:05;;;;;;;30.30;17.50;;;5.30;99.40;;;5.06;100.00;98622.13;5001841;28;20137;-71
2022/03/26 02:09:35;;;;;;;35.83;19.02;;;5.40;99.60;;;4.94;100.00;98618.75;5002338;28;20160;-71
2022/03/26 02:12:27;;;;;;;33.65;20.60;;;5.30;99.80;;;5.00;100.00;98620.47;5001109;28;20072;-70
2022/03/26 02:14:57;;;;;;;36.25;21.40;;;5.30;99.90;;;4.88;100.00;98618.78;5005978;28;20412;-71
2022/03/26 02:17:24;;;;;;;37.33;20.13;;;5.30;99.90;;;4.67;100.00;98619.66;5002206;28;20096;-71
2022/03/26 02:19:58;;;;;;;35.88;20.23;;;5.20;99.90;;;4.68;100.00;98617.97;5002868;28;20084;-71
2022/03/26 02:22:27;;;;;;;38.20;19.55;;;5.10;99.90;;;4.78;100.00;98614.50;5001762;28;20133;-71
2022/03/26 02:24:56;;;;;;;40.72;19.58;;;5.10;99.90;;;4.88;100.00;98617.91;5002173;28;20473;-72
2022/03/26 02:27:25;;;;;;;37.95;19.73;;;5.20;99.90;;;4.77;100.00;98613.66;5019725;28;20129;-72
2022/03/26 02:29:53;;;;;;;33.17;18.65;;;5.10;99.90;;;4.77;100.00;98617.97;4998777;28;20046;-70
2022/03/26 02:32:27;;;;;;;37.42;20.08;;;5.10;99.90;;;4.79;100.00;98621.38;5003556;28;20500;-70
2022/03/26 02:34:55;;;;;;;33.58;19.73;;;5.20;99.90;;;4.70;100.00;98621.38;5002924;28;20145;-71
2022/03/26 02:37:29;;;;;;;33.17;19.67;;;5.10;99.90;;;4.64;100.00;98621.41;5016523;28;20058;-72
2022/03/26 02:39:57;;;;;;;38.28;21.02;;;5.00;99.90;;;4.57;100.00;98620.56;5003635;28;20050;-71
2022/03/26 02:42:24;;;;;;;35.53;19.73;;;5.00;99.90;;;4.57;100.00;98626.56;5006998;28;20049;-71
2022/03/26 02:44:52;;;;;;;37.00;19.60;;;4.90;99.90;;;4.56;100.00;98624.88;4999407;28;20130;-70
2022/03/26 02:47:19;;;;;;;36.40;21.50;;;5.00;99.90;;;4.55;100.00;98625.69;5006346;28;20587;-71
2022/03/26 02:49:46;;;;;;;38.58;19.95;;;4.90;99.90;;;4.51;100.00;98624.00;4999525;28;20535;-72
2022/03/26 02:52:13;;;;;;;35.38;20.08;;;4.90;99.90;;;4.50;100.00;98622.28;4996335;28;20050;-70
2022/03/26 02:54:41;;;;;;;34.75;18.95;;;4.90;99.90;;;4.43;100.00;98615.44;5004561;28;20112;-72
2022/03/26 02:57:08;;;;;;;32.90;19.67;;;4.90;99.90;;;4.36;100.00;98626.59;5016674;28;20595;-72
2022/03/26 02:59:36;;;;;;;39.70;20.38;;;4.90;99.90;;;4.14;100.00;98618.03;5017365;28;20050;-70
2022/03/26 03:02:05;;;;;;;40.58;19.80;;;4.70;99.90;;;4.21;100.00;98616.31;5005514;28;20092;-71
2022/03/26 03:04:32;;;;;;;34.50;17.80;;;4.60;99.90;;;4.46;100.00;98617.16;5020127;28;20053;-72
2022/03/26 03:07:00;;;;;;;35.30;17.55;;;4.70;99.90;;;4.56;100.00;98621.41;4999362;28;20053;-72
2022/03/26 03:09:26;;;;;;;39.17;17.77;;;4.90;99.90;;;4.37;100.00;98623.16;5001190;28;20173;-71
2022/03/26 03:11:53;;;;;;;36.53;18.10;;;4.80;99.90;;;4.22;100.00;98623.16;4999718;28;20065;-71
2022/03/26 03:14:20;;;;;;;36.75;17.90;;;4.70;99.90;;;4.02;100.00;98618.03;5001160;28;20066;-71
2022/03/26 03:16:48;;;;;;;43.33;19.27;;;4.60;99.90;;;4.18;100.00;98609.47;5005678;28;20471;-72
2022/03/26 03:19:15;;;;;;;36.40;17.98;;;4.60;99.90;;;4.21;100.00;98613.75;5000232;28;20140;-71
2022/03/26 03:21:42;;;;;;;32.20;18.30;;;4.60;99.90;;;4.12;100.00;98612.03;5000687;28;20073;-71
2022/03/26 03:24:08;;;;;;;37.33;18.08;;;4.60;99.90;;;4.14;100.00;98610.31;5005985;28;20054;-72
2022/03/26 03:26:35;;;;;;;36.28;18.40;;;4.60;99.90;;;4.19;100.00;98604.31;5002831;28;20144;-71
2022/03/26 03:29:02;;;;;;;40.17;19.13;;;4.60;99.90;;;4.14;100.00;98600.91;5002114;28;20068;-71
2022/03/26 03:31:29;;;;;;;40.85;18.38;;;4.60;99.90;;;4.19;100.00;98601.75;5004941;28;20154;-72
2022/03/26 03:33:56;;;;;;;35.58;18.35;;;4.60;99.90;;;4.09;100.00;98592.34;5000224;28;20073;-71
2022/03/26 03:36:23;;;;;;;34.28;18.73;;;4.60;99.90;;;4.08;100.00;98602.59;4998295;28;20101;-71
2022/03/26 03:38:50;;;;;;;36.78;18.48;;;4.50;99.90;;;4.04;100.00;98596.63;5003116;28;20132;-71
2022/03/26 03:41:18;;;;;;;30.88;17.13;;;4.50;99.90;;;3.95;100.00;98597.47;5002429;28;20077;-72
2022/03/26 03:43:45;;;;;;;40.92;18.90;;;4.40;99.90;;;3.78;100.00;98596.59;5003687;28;20045;-70
2022/03/26 03:46:12;;;;;;;34.22;18.98;;;4.40;99.90;;;3.64;100.00;98599.16;5004040;28;20133;-71
2022/03/26 03:48:40;;;;;;;38.85;19.00;;;4.20;99.90;;;3.66;100.00;98592.31;5008874;28;20050;-71
2022/03/26 03:51:07;;;;;;;39.70;19.30;;;4.10;99.90;;;3.71;100.00;98592.31;5006442;28;20156;-70
2022/03/26 03:53:35;;;;;;;38.50;18.75;;;4.10;99.90;;;3.72;100.00;98589.78;5004724;28;20049;-71
2022/03/26 03:56:03;;;;;;;36.80;18.00;;;4.10;99.90;;;3.76;100.00;98593.19;5006905;28;20105;-71
2022/03/26 03:58:30;;;;;;;39.78;20.15;;;4.20;99.90;;;3.59;100.00;98589.75;5009518;28;20054;-70
2022/03/26 04:01:03;;;;;;;40.67;18.88;;;4.10;99.90;;;3.66;100.00;98594.03;5003250;28;20500;-71
2022/03/26 04:03:30;;;;;;;36.00;18.73;;;4.10;99.90;;;3.61;100.00;98594.03;5006317;28;20054;-71
2022/03/26 04:06:01;;;;;;;38.15;19.42;;;4.00;99.90;;;3.54;100.00;98590.59;5003140;28;20381;-70
2022/03/26 04:08:28;;;;;;;38.72;18.08;;;4.00;99.90;;;3.50;100.00;98588.88;5012277;28;20129;-71
2022/03/26 04:10:55;;;;;;;35.70;18.40;;;3.90;99.90;;;3.44;100.00;98588.00;5007378;28;20164;-70
2022/03/26 04:13:22;;;;;;;37.28;18.27;;;3.90;99.90;;;3.38;100.00;98593.13;5009168;28;20054;-72
2022/03/26 04:15:49;;;;;;;37.35;18.42;;;3.90;99.90;;;3.28;100.00;98597.38;5001960;28;20211;-70
2022/03/26 04:18:16;;;;;;;34.40;18.33;;;3.80;99.90;;;3.24;100.00;98590.50;5003359;28;20551;-71
2022/03/26 04:20:43;;;;;;;42.38;20.73;;;3.70;99.90;;;3.12;100.00;98596.47;5004063;28;20547;-71
2022/03/26 04:23:10;;;;;;;37.90;19.33;;;3.70;99.90;;;3.01;100.00;98596.44;5011212;28;20077;-71
2022/03/26 04:25:38;;;;;;;41.58;19.98;;;3.60;99.90;;;3.01;100.00;98604.13;5007885;28;20116;-70
2022/03/26 04:28:05;;;;;;;39.75;19.35;;;3.60;99.90;;;3.20;100.00;98602.47;5003006;28;20046;-70
2022/03/26 04:30:32;;;;;;;37.83;18.70;;;3.60;99.90;;;3.11;100.00;98603.31;5005402;28;20094;-73
2022/03/26 04:32:59;;;;;;;36.90;20.08;;;3.60;99.90;;;3.07;100.00;98603.28;5000735;28;20070;-70
2022/03/26 04:35:26;;;;;;;40.10;19.60;;;3.60;99.90;;;3.05;100.00;98607.56;5002628;28;20865;-72
2022/03/26 04:37:56;;;;;;;37.78;20.35;;;3.50;99.90;;;2.61;100.00;98609.06;5003820;28;20045;-72
2022/03/26 04:40:25;;;;;;;39.78;20.27;;;3.30;99.90;;;2.65;100.00;98615.06;5002300;28;20116;-72
2022/03/26 04:42:52;;;;;;;38.20;20.50;;;3.30;99.90;;;2.73;100.00;98611.69;4984707;28;20057;-72
2022/03/26 04:45:20;;;;;;;51.15;22.13;;;3.30;99.90;;;2.48;100.00;98614.94;5004264;28;20050;-71
2022/03/26 04:47:47;;;;;;;39.38;19.80;;;3.10;99.90;;;2.34;100.00;98614.00;5005796;28;20065;-72
2022/03/26 04:50:15;;;;;;;37.67;20.23;;;2.90;99.90;;;2.28;100.00;98613.13;5006920;28;20153;-71
2022/03/26 04:52:42;;;;;;;46.40;21.15;;;2.80;99.90;;;2.18;100.00;98628.41;5004955;28;20070;-71
2022/03/26 04:55:13;;;;;;;38.50;21.23;;;2.70;99.90;;;2.39;100.00;98622.56;5006988;28;20050;-72
2022/03/26 04:57:42;;;;;;;38.33;20.35;;;2.80;99.90;;;2.60;100.00;98622.72;5007459;28;20050;-72
2022/03/26 05:00:12;;;;;;;42.17;20.98;;;2.90;99.90;;;2.73;100.00;98619.38;5007498;28;20058;-71
2022/03/26 05:02:40;;;;;;;40.42;21.15;;;3.10;99.90;;;2.56;100.00;98622.72;5005465;28;20069;-72
2022/03/26 05:05:09;;;;;;;41.28;20.77;;;3.10;99.90;;;2.53;100.00;98625.22;5002099;28;20485;-72
2022/03/26 05:07:46;;;;;;;40.80;20.42;;;3.00;99.90;;;2.43;100.00;98622.59;5007583;28;20604;-72
2022/03/26 05:10:22;;;;;;;39.65;21.08;;;3.00;99.90;;;2.48;100.00;98622.63;5006586;28;20057;-73
2022/03/26 05:12:51;;;;;;;37.35;21.02;;;3.00;99.90;;;2.31;100.00;98632.78;5006506;28;20133;-72
2022/03/26 05:15:21;;;;;;;37.60;20.08;;;2.90;99.90;;;2.32;100.00;98629.34;5008999;28;20046;-70
2022/03/26 05:17:50;;;;;;;38.50;20.90;;;2.90;99.90;;;2.33;100.00;98633.66;5002691;28;20093;-70
2022/03/26 05:20:18;;;;;;;38.97;21.10;;;2.90;99.90;;;2.27;100.00;98636.16;5002396;28;20078;-71
2022/03/26 05:22:47;;;;;;;38.13;21.23;;;2.80;99.90;;;2.49;100.00;98629.50;5009329;28;20536;-71
2022/03/26 05:25:16;;;;;;;40.53;20.38;;;2.90;99.90;;;2.43;100.00;98627.72;5002822;28;20132;-71
2022/03/26 05:27:53;;;;;;;45.90;21.08;;;2.90;99.90;;;2.31;100.00;98630.22;5005698;28;20077;-71
2022/03/26 05:30:21;;;;;;;37.72;20.13;;;2.80;99.90;;;2.30;100.00;98639.63;5001470;28;20076;-71
2022/03/26 05:32:48;;;;;;;40.33;21.08;;;2.80;99.90;;;2.44;100.00;98638.84;5001633;28;20089;-70
2022/03/26 05:35:16;;;;;;;42.25;22.10;;;2.90;99.90;;;2.24;100.00;98644.69;5002214;28;20598;-70
2022/03/26 05:37:49;;;;;;;43.28;21.70;;;2.80;99.90;;;2.23;100.00;98647.22;5002502;28;20565;-71
2022/03/26 05:40:18;;;;;;;42.95;21.45;;;2.80;99.90;;;2.44;100.00;98637.16;5005342;28;20610;-70
2022/03/26 05:42:47;;;;;;;41.42;21.48;;;2.80;99.90;;;2.44;100.00;98642.28;5001484;28;20081;-70
2022/03/26 05:45:14;;;;;;;39.30;20.70;;;2.90;99.90;;;2.43;100.00;98653.34;5003348;28;20081;-71
2022/03/26 05:47:42;;;;;;;40.83;20.17;;;2.90;99.90;;;2.70;100.00;98647.56;4999068;28;20049;-72
2022/03/26 05:50:12;;;;;;;39.92;20.27;;;3.00;99.90;;;2.93;100.00;98647.69;5007564;28;20080;-71
2022/03/26 05:52:40;;;;;;;36.58;20.08;;;3.20;99.90;;;3.10;100.00;98652.91;4998909;28;20057;-72
2022/03/26 05:55:08;;;;;;;37.72;20.80;;;3.40;99.90;;;3.23;100.00;98656.38;5000996;28;20121;-71
2022/03/26 05:57:35;;;;;;;38.75;19.95;;;3.50;99.90;;;3.20;100.00;98656.38;5010158;28;20124;-73
2022/03/26 06:00:04;;;;;;;39.38;19.67;;;3.60;99.90;;;3.10;100.00;98659.72;5007376;28;20045;-70
2022/03/26 06:02:32;;;;;;;39.42;21.20;;;3.60;99.90;;;3.17;100.00;98658.03;5004223;28;20096;-71
2022/03/26 06:04:59;;;;;;;38.17;21.27;;;3.60;99.90;;;3.21;100.00;98670.91;5008204;28;20046;-72
2022/03/26 06:07:26;;;;;;;36.90;20.45;;;3.70;99.90;;;3.24;100.00;98663.22;5003641;28;20046;-72
2022/03/26 06:09:53;;;;;;;44.58;19.75;;;3.70;99.90;;;3.42;100.00;98671.84;5002112;28;20102;-71
2022/03/26 06:12:20;;;;;;;41.20;20.15;;;3.80;99.90;;;3.63;100.00;98669.34;5002081;28;20092;-73
2022/03/26 06:14:48;;;;;;;34.53;19.05;;;4.00;99.90;;;3.76;100.00;98670.22;5001093;28;20054;-72
2022/03/26 06:17:15;;;;;;;37.22;20.75;;;4.10;99.90;;;3.67;100.00;98672.75;5001397;28;20136;-73
2022/03/26 06:19:43;;;;;;;40.22;20.20;;;4.10;99.90;;;3.62;100.00;98667.63;5000561;28;20508;-72
2022/03/26 06:22:10;;;;;;;41.25;20.58;;;4.10;99.90;;;3.54;100.00;98672.75;4999933;28;20077;-72
2022/03/26 06:24:39;;;;;;;36.47;17.90;;;4.10;99.90;;;3.84;100.00;98681.38;5005213;28;20049;-72
2022/03/26 06:27:07;;;;;;;39.90;21.35;;;4.10;99.90;;;3.93;100.00;98678.81;5003045;28;20176;-71
2022/03/26 06:29:36;;;;;;;41.22;19.75;;;4.30;99.90;;;4.03;100.00;98674.53;5002350;28;20073;-72
2022/03/26 06:32:04;;;;;;;36.67;18.80;;;4.40;99.90;;;4.15;100.00;98677.16;5003289;28;20061;-71
2022/03/26 06:34:31;;;;;;;36.38;19.40;;;4.50;99.90;;;4.60;100.00;98677.13;5002642;28;20081;-72
2022/03/26 06:36:58;;;;;;;36.38;19.73;;;4.80;99.90;;;4.96;100.00;98672.78;5004575;28;20085;-71
2022/03/26 06:39:25;;;;;;;39.17;18.70;;;5.10;99.90;;;5.18;100.00;98669.28;5005336;28;20069;-71
2022/03/26 06:41:53;;;;;;;36.13;19.30;;;5.40;99.90;;;5.45;100.00;98675.16;5001205;28;20081;-71
2022/03/26 06:44:20;;;;;;;35.72;18.05;;;5.70;99.90;;;5.66;100.00;98685.38;5006565;28;20491;-73
2022/03/26 06:46:47;;;;;;;38.22;19.20;;;5.90;99.90;;;5.82;100.00;98675.84;5001667;28;20038;-71
2022/03/26 06:49:14;;;;;;;39.78;18.42;;;6.10;99.90;;;6.04;100.00;98679.19;4998976;28;20058;-71
2022/03/26 06:51:41;;;;;;;41.95;18.35;;;6.30;99.90;;;6.19;100.00;98675.63;5002029;28;20049;-71
2022/03/26 06:54:08;;;;;;;39.25;18.75;;;6.50;99.90;;;6.47;100.00;98683.16;5005319;28;20133;-72
2022/03/26 06:56:35;;;;;;;34.40;18.25;;;6.70;99.90;;;6.66;100.00;98674.38;5003127;28;20408;-72
2022/03/26 06:59:02;;;;;;;40.90;19.33;;;6.90;99.90;;;6.81;100.00;98680.25;5006243;28;20551;-72
2022/03/26 07:01:29;;;;;;;37.28;18.42;;;7.10;99.90;;;6.94;100.00;98679.28;5003538;28;20097;-73
2022/03/26 07:03:57;;;;;;;37.80;19.02;;;7.30;99.90;;;7.02;100.00;98679.19;5007317;28;20101;-71
2022/03/26 07:06:25;;;;;;;38.45;18.13;;;7.40;99.90;;;7.24;100.00;98680.66;5008464;28;20054;-72
2022/03/26 07:08:52;;;;;;;41.25;18.40;;;7.60;99.90;;;7.32;100.00;98680.56;5003067;28;20453;-71
2022/03/26 07:11:19;;;;;;;43.80;19.83;;;7.70;99.90;;;7.42;100.00;98679.59;5002735;28;20449;-72
2022/03/26 07:13:46;;;;;;;43.00;19.83;;;7.90;99.90;;;7.56;100.00;98674.25;5002601;28;20069;-71
2022/03/26 07:16:13;;;;;;;34.58;18.92;;;8.00;99.90;;;7.66;100.00;98681.03;5001924;28;20259;-70
2022/03/26 07:18:40;;;;;;;42.63;21.23;;;8.10;99.90;;;7.71;100.00;98686.97;5005104;28;20082;-73
2022/03/26 07:21:08;;;;;;;37.90;18.48;;;8.20;99.90;;;7.76;100.00;98681.75;5006272;28;20100;-70
2022/03/26 07:23:35;;;;;;;37.20;18.52;;;8.20;99.90;;;7.92;100.00;98684.97;5004806;28;20453;-70
2022/03/26 07:26:03;;;;;;;38.00;18.27;;;8.40;99.90;;;7.96;100.00;98678.88;5003505;28;20126;-71
2022/03/26 07:28:30;;;;;;;35.60;18.23;;;8.40;99.90;;;8.17;100.00;98678.56;5006804;28;20159;-70
2022/03/26 07:30:57;;;;;;;38.33;18.55;;;8.50;99.90;;;8.21;100.00;98684.56;5002821;28;20042;-71
2022/03/26 07:33:24;;;;;;;42.60;17.90;;;8.60;99.90;;;8.31;100.00;98682.66;5001514;28;20050;-70
2022/03/26 07:35:51;;;;;;;32.13;17.73;;;8.70;99.90;;;8.41;100.00;98684.25;4999988;28;20038;-71
2022/03/26 07:38:18;;;;;;;42.88;20.17;;;8.90;99.90;;;8.38;100.00;98686.88;5000587;28;20493;-71
2022/03/26 07:40:45;;;;;;;35.63;19.05;;;8.90;99.90;;;8.52;100.00;98678.91;5003042;28;20069;-71
2022/03/26 07:43:12;;;;;;;37.47;18.73;;;9.00;99.90;;;8.58;100.00;98684.84;5022737;28;20081;-71
2022/03/26 07:45:39;;;;;;;37.67;18.88;;;9.10;99.90;;;8.55;100.00;98684.91;5001507;28;20121;-71
2022/03/26 07:48:06;;;;;;;31.33;18.15;;;9.10;99.80;;;8.61;100.00;98683.06;5005033;28;20054;-71
2022/03/26 07:50:33;;;;;;;43.40;18.92;;;9.20;99.60;;;8.81;100.00;98688.75;5007632;28;20074;-71
2022/03/26 07:53:00;;;;;;;35.78;18.58;;;9.30;99.60;;;8.92;100.00;98686.00;5003078;28;20049;-71
2022/03/26 07:55:27;;;;;;;33.83;18.50;;;9.40;98.90;;;9.05;100.00;98687.44;5004651;28;20038;-71
2022/03/26 07:57:54;;;;;;;36.38;18.33;;;9.50;98.80;;;9.12;100.00;98686.47;5009361;28;20229;-71
2022/03/26 08:00:21;;;;;;;35.88;18.33;;;9.60;97.50;;;9.40;100.00;98693.72;5004130;28;20522;-71
2022/03/26 08:02:49;;;;;;;40.47;18.98;;;9.90;98.50;;;9.44;100.00;98690.16;4996802;28;20526;-71
2022/03/26 08:05:16;;;;;;;38.10;18.10;;;10.00;97.50;;;9.59;100.00;98692.44;5001270;28;20196;-72
2022/03/26 08:07:43;;;;;;;33.45;17.88;;;10.20;96.70;;;9.66;100.00;98700.09;5004652;28;20158;-71
2022/03/26 08:10:10;;;;;;;35.53;18.70;;;10.40;96.80;;;9.97;100.00;98697.69;5010283;28;20058;-71
2022/03/26 08:12:37;;;;;;;35.92;19.83;;;10.60;95.30;;;10.15;100.00;98701.59;5009140;28;20049;-72
2022/03/26 08:15:06;;;;;;;33.10;19.20;;;10.90;94.70;;;10.63;100.00;98701.38;5009377;28;20505;-72
2022/03/26 08:17:33;;;;;;;35.88;19.25;;;11.20;94.30;;;10.74;100.00;98690.69;5003268;28;20129;-71
2022/03/26 08:20:00;;;;;;;38.22;19.40;;;11.30;93.20;;;10.73;100.00;98689.00;5006356;28;20256;-71
2022/03/26 08:22:28;;;;;;;43.30;20.05;;;11.40;92.60;;;10.89;100.00;98690.31;5006281;28;20081;-72
2022/03/26 08:24:55;;;;;;;31.23;18.42;;;11.40;91.60;;;11.39;100.00;98693.28;5007962;28;20074;-71
2022/03/26 08:27:23;;;;;;;31.67;19.30;;;11.50;91.40;;;11.54;100.00;98696.34;5009252;28;20133;-71
2022/03/26 08:29:52;;;;;;;36.53;20.35;;;11.60;91.40;;;11.59;100.00;98699.69;5005112;28;20066;-71
2022/03/26 08:32:20;;;;;;;36.33;19.92;;;11.70;90.70;;;11.64;100.00;98698.66;5006864;28;20134;-72
2022/03/26 08:34:47;;;;;;;35.50;20.05;;;11.80;90.10;;;12.07;100.00;98702.59;5006496;28;20060;-72
2022/03/26 08:37:15;;;;;;;37.78;21.25;;;12.10;90.00;;;12.10;100.00;98707.69;5005414;28;20050;-72
2022/03/26 08:39:42;;;;;;;36.03;21.15;;;12.10;89.10;;;11.98;100.00;98713.28;5026156;28;20042;-72
2022/03/26 08:42:09;;;;;;;34.85;21.38;;;12.20;88.10;;;12.23;100.00;98704.75;5005074;28;20054;-72
2022/03/26 08:44:36;;;;;;;34.08;19.17;;;12.30;87.00;;;13.17;99.22;98710.31;5006003;28;20054;-72
2022/03/26 08:47:05;;;;;;;30.63;19.30;;;12.70;87.20;;;14.10;97.85;98716.47;5011420;28;20046;-71
2022/03/26 08:49:34;;;;;;;38.42;21.17;;;13.20;87.20;;;14.11;94.73;98701.66;5005066;28;20077;-72
2022/03/26 08:52:01;;;;;;;35.97;19.60;;;13.50;84.60;;;14.11;94.86;98706.88;5005268;28;20137;-72
2022/03/26 08:54:28;;;;;;;38.25;19.90;;;13.80;83.80;;;14.82;93.72;98700.56;5015491;28;20074;-73
2022/03/26 08:56:55;;;;;;;33.67;19.73;;;14.00;82.30;;;14.59;93.77;98711.09;5004685;28;20546;-71
2022/03/26 08:59:23;;;;;;;35.08;21.50;;;14.20;82.40;;;14.14;93.54;98711.97;5008249;28;20531;-72
2022/03/26 09:01:51;;;;;;;32.38;21.20;;;14.00;81.00;;;13.99;94.01;98714.28;5009173;28;20065;-72
2022/03/26 09:04:18;;;;;;;35.80;21.05;;;14.00;80.80;;;14.62;93.02;98708.38;5011779;28;20050;-72
2022/03/26 09:06:46;;;;;;;31.95;20.17;;;14.40;80.30;;;14.35;93.13;98710.31;4999896;28;20476;-72
2022/03/26 09:09:15;;;;;;;39.55;21.65;;;14.40;80.00;;;14.24;93.11;98715.94;5007705;28;20058;-70
2022/03/26 09:11:43;;;;;;;35.13;21.85;;;14.20;79.80;;;14.22;93.73;98710.78;5005147;28;20184;-71
2022/03/26 09:14:12;;;;;;;37.10;21.50;;;14.20;80.20;;;14.36;92.88;98704.16;5004902;28;20060;-72
2022/03/26 09:16:39;;;;;;;37.38;22.10;;;14.30;79.30;;;14.52;90.80;98710.47;5005707;28;20049;-72
2022/03/26 09:19:07;;;;;;;35.00;21.02;;;14.20;78.40;;;14.47;91.96;98703.72;5003678;28;20061;-71
2022/03/26 09:21:34;;;;;;;38.40;20.10;;;14.30;79.30;;;14.99;91.49;98704.22;5004949;28;20050;-71
2022/03/26 09:24:01;;;;;;;35.67;20.27;;;14.70;79.30;;;15.94;89.23;98701.78;5004494;28;20065;-70
2022/03/26 09:26:28;;;;;;;33.10;20.65;;;15.30;78.80;;;15.61;89.03;98705.00;5005145;28;20393;-71
2022/03/26 09:28:55;;;;;;;37.35;22.33;;;15.40;77.70;;;15.10;88.47;98704.63;5004564;28;20041;-71
2022/03/26 09:31:22;;;;;;;31.92;21.52;;;15.70;75.60;;;16.26;87.38;98702.88;5006348;28;20076;-70
2022/03/26 09:33:50;;;;;;;38.25;21.52;;;15.90;76.50;;;17.00;83.25;98700.16;5007173;28;20480;-71
2022/03/26 09:36:17;;;;;;;31.58;20.42;;;16.30;75.20;;;16.69;83.01;98706.03;5003440;28;20352;-71
2022/03/26 09:38:44;;;;;;;39.60;21.40;;;16.40;73.70;;;17.06;81.45;98697.22;5002171;28;20524;-71
2022/03/26 09:41:12;;;;;;;31.90;19.83;;;16.60;73.60;;;16.42;83.05;98701.25;5002440;28;20476;-71
2022/03/26 09:43:39;;;;;;;32.85;20.92;;;16.50;72.80;;;16.42;81.42;98705.59;5001191;28;20132;-70
2022/03/26 09:46:06;;;;;;;38.28;22.17;;;16.40;72.20;;;16.66;82.61;98703.56;5006082;28;20046;-71
2022/03/26 09:48:35;;;;;;;32.60;22.15;;;16.40;73.20;;;17.46;80.79;98705.63;5001588;28;20057;-71
2022/03/26 09:51:04;;;;;;;35.08;22.55;;;17.00;72.40;;;17.25;76.01;98706.75;4999917;28;20698;-71
2022/03/26 09:53:31;;;;;;;33.03;21.52;;;17.10;70.00;;;16.60;79.73;98709.94;5001346;28;20046;-71
2022/03/26 09:55:59;;;;;;;38.15;21.80;;;16.80;70.90;;;16.20;79.68;98713.66;5003263;28;20073;-72
2022/03/26 09:58:25;;;;;;;38.60;21.35;;;16.60;70.10;;;16.69;78.76;98701.66;5008314;28;20172;-70
2022/03/26 10:00:53;;;;;;;35.25;22.58;;;16.80;70.30;;;17.29;78.30;98706.53;5000864;28;20052;-70
2022/03/26 10:03:20;;;;;;;35.42;23.20;;;17.20;70.50;;;16.23;79.95;98703.88;5002714;28;20057;-70
2022/03/26 10:05:48;;;;;;;31.73;21.92;;;17.20;69.50;;;17.45;77.94;98706.56;5002712;28;20050;-71
2022/03/26 10:08:24;;;;;;;35.20;22.77;;;17.30;70.30;;;17.87;72.18;98702.59;5005645;28;20129;-70
2022/03/26 10:10:52;;;;;;;34.63;21.58;;;17.50;68.10;;;18.44;73.78;98699.44;5001694;28;20153;-69
2022/03/26 10:13:41;;;;;;;35.47;22.65;;;17.90;68.70;;;17.62;72.92;98710.91;4998473;28;20464;-71